Time;durP1;ratioP1;P1;durP2;ratioP2;P2;SDS_P1;SDS_P2;PMS_P1;PMS_P2;Temp;Humidity;BMP_temperature;BMP_pressure;BME280_temperature;BME280_humidity;BME280_pressure;Samples;Min_cycle;Max_cycle;Signal;HPM_P1;HPM_P2
2023/10/25 00:00:37;;;;;;;0.20;0.20;;;;;;;;;;5112937;28;20043;-76
2023/10/25 00:03:10;;;;;;;0.10;0.10;;;;;;;;;;5114076;28;20386;-74
2023/10/25 00:05:36;;;;;;;0.20;0.20;;;;;;;;;;5123528;28;20085;-76
2023/10/25 00:08:10;;;;;;;0.20;0.20;;;;;;;;;;5113345;28;20028;-76
2023/10/25 00:10:38;;;;;;;0.10;0.10;;;;;;;;;;5112718;28;20479;-75
2023/10/25 00:13:04;;;;;;;0.25;0.25;;;;;;;;;;5112033;28;20103;-74
2023/10/25 00:15:31;;;;;;;0.30;0.30;;;;;;;;;;5111085;28;20028;-76
2023/10/25 00:17:58;;;;;;;0.10;0.10;;;;;;;;;;5112298;28;20040;-78
2023/10/25 00:20:24;;;;;;;0.10;0.10;;;;;;;;;;5111957;28;20150;-78
2023/10/25 00:22:50;;;;;;;0.10;0.10;;;;;;;;;;5081149;28;20367;-78
2023/10/25 00:25:18;;;;;;;0.10;0.10;;;;;;;;;;5116631;28;20092;-80
2023/10/25 00:27:44;;;;;;;0.10;0.10;;;;;;;;;;5115448;28;20051;-79
2023/10/25 00:30:11;;;;;;;0.20;0.20;;;;;;;;;;5079748;28;20047;-77
2023/10/25 00:32:39;;;;;;;0.10;0.10;;;;;;;;;;5116021;28;20371;-76
2023/10/25 00:35:05;;;;;;;0.10;0.10;;;;;;;;;;5115746;28;20035;-78
2023/10/25 00:37:37;;;;;;;0.20;0.20;;;;;;;;;;5097867;28;20033;-77
2023/10/25 00:40:06;;;;;;;0.20;0.20;;;;;;;;;;5115935;28;20536;-76
2023/10/25 00:42:32;;;;;;;0.20;0.20;;;;;;;;;;5115873;28;20307;-75
2023/10/25 00:44:58;;;;;;;0.20;0.20;;;;;;;;;;5115742;28;20035;-75
2023/10/25 00:47:24;;;;;;;0.10;0.10;;;;;;;;;;5097483;28;20040;-75
2023/10/25 00:49:50;;;;;;;0.20;0.20;;;;;;;;;;5097349;28;20032;-76
2023/10/25 00:52:22;;;;;;;0.20;0.20;;;;;;;;;;5097369;28;20440;-75
2023/10/25 00:54:57;;;;;;;2.90;2.80;;;;;;;;;;5115599;28;20039;-76
2023/10/25 00:57:26;;;;;;;0.17;0.17;;;;;;;;;;5097679;28;20105;-76
2023/10/25 00:59:52;;;;;;;0.20;0.20;;;;;;;;;;5097355;28;20028;-75
2023/10/25 01:02:18;;;;;;;0.20;0.20;;;;;;;;;;5097341;28;20062;-77
2023/10/25 01:04:50;;;;;;;0.20;0.20;;;;;;;;;;5115681;28;20494;-77
2023/10/25 01:07:21;;;;;;;0.20;0.20;;;;;;;;;;5115324;28;20039;-75
2023/10/25 01:09:49;;;;;;;0.20;0.20;;;;;;;;;;5115788;28;20030;-75
2023/10/25 01:12:22;;;;;;;0.13;0.13;;;;;;;;;;5096893;28;20062;-75
2023/10/25 01:14:49;;;;;;;0.10;0.10;;;;;;;;;;5115294;28;20391;-75
2023/10/25 01:17:17;;;;;;;0.20;0.20;;;;;;;;;;5115266;28;20043;-74
2023/10/25 01:19:45;;;;;;;0.20;0.20;;;;;;;;;;5115724;28;20041;-74
2023/10/25 01:22:11;;;;;;;0.10;0.10;;;;;;;;;;5115235;28;20035;-74
2023/10/25 01:24:37;;;;;;;0.10;0.10;;;;;;;;;;5115743;28;20027;-74
2023/10/25 01:27:08;;;;;;;0.17;0.17;;;;;;;;;;5115135;28;20035;-73
2023/10/25 01:29:42;;;;;;;0.25;0.25;;;;;;;;;;5097210;28;20487;-74
2023/10/25 01:32:10;;;;;;;0.10;0.10;;;;;;;;;;5114530;28;20028;-74
2023/10/25 01:34:38;;;;;;;0.20;0.20;;;;;;;;;;5115483;28;20402;-73
2023/10/25 01:37:15;;;;;;;0.10;0.10;;;;;;;;;;5115028;28;20031;-74
2023/10/25 01:39:43;;;;;;;0.17;0.17;;;;;;;;;;5112444;28;20071;-75
2023/10/25 01:42:11;;;;;;;0.20;0.20;;;;;;;;;;5118895;28;20023;-75
2023/10/25 01:44:43;;;;;;;0.20;0.20;;;;;;;;;;5135858;28;20059;-74
2023/10/25 01:47:12;;;;;;;0.20;0.20;;;;;;;;;;5117578;28;20030;-75
2023/10/25 01:49:37;;;;;;;0.20;0.20;;;;;;;;;;5116932;28;20045;-75
2023/10/25 01:52:05;;;;;;;0.10;0.10;;;;;;;;;;5135182;28;20035;-74
2023/10/25 01:54:37;;;;;;;0.20;0.20;;;;;;;;;;5135336;28;20385;-75
2023/10/25 01:57:09;;;;;;;0.10;0.10;;;;;;;;;;5135335;28;20042;-75
2023/10/25 01:59:36;;;;;;;0.20;0.20;;;;;;;;;;5134119;28;20588;-74
2023/10/25 02:02:01;;;;;;;0.10;0.10;;;;;;;;;;5116646;28;20129;-75
2023/10/25 02:04:30;;;;;;;0.20;0.20;;;;;;;;;;5135338;28;20467;-76
2023/10/25 02:06:56;;;;;;;0.20;0.20;;;;;;;;;;5135184;28;20070;-75
2023/10/25 02:09:22;;;;;;;0.20;0.20;;;;;;;;;;5135041;28;20027;-75
2023/10/25 02:11:51;;;;;;;0.20;0.20;;;;;;;;;;5133996;28;20049;-75
2023/10/25 02:14:17;;;;;;;0.10;0.10;;;;;;;;;;5134804;28;20469;-75
2023/10/25 02:16:43;;;;;;;0.13;0.13;;;;;;;;;;5135215;28;20420;-74
2023/10/25 02:19:09;;;;;;;0.10;0.10;;;;;;;;;;5134679;28;20029;-75
2023/10/25 02:21:37;;;;;;;0.20;0.20;;;;;;;;;;5116714;28;20067;-75
2023/10/25 02:24:14;;;;;;;0.15;0.15;;;;;;;;;;5134788;28;20363;-73
2023/10/25 02:26:46;;;;;;;0.10;0.10;;;;;;;;;;5134928;28;20558;-75
2023/10/25 02:29:20;;;;;;;0.20;0.20;;;;;;;;;;5117017;28;20031;-76
2023/10/25 02:31:48;;;;;;;0.10;0.10;;;;;;;;;;5135074;28;20035;-75
2023/10/25 02:34:19;;;;;;;0.10;0.10;;;;;;;;;;5116368;28;20024;-76
2023/10/25 02:36:51;;;;;;;0.10;0.10;;;;;;;;;;5133568;28;20055;-74
2023/10/25 02:39:17;;;;;;;0.20;0.20;;;;;;;;;;5134608;28;20038;-74
2023/10/25 02:41:43;;;;;;;0.17;0.17;;;;;;;;;;5116128;28;20038;-75
2023/10/25 02:44:20;;;;;;;0.20;0.20;;;;;;;;;;5115139;28;20031;-75
2023/10/25 02:46:49;;;;;;;0.20;0.20;;;;;;;;;;5134614;28;20397;-75
2023/10/25 02:49:14;;;;;;;0.20;0.20;;;;;;;;;;5134493;28;20114;-75
2023/10/25 02:51:43;;;;;;;0.20;0.20;;;;;;;;;;5115992;28;20291;-75
2023/10/25 02:54:12;;;;;;;0.20;0.20;;;;;;;;;;5134341;28;20501;-75
2023/10/25 02:56:41;;;;;;;0.20;0.20;;;;;;;;;;5134081;28;20482;-74
2023/10/25 02:59:07;;;;;;;0.20;0.20;;;;;;;;;;5134347;28;20032;-74
2023/10/25 03:01:36;;;;;;;0.20;0.20;;;;;;;;;;5134272;28;20043;-74
2023/10/25 03:04:02;;;;;;;0.20;0.20;;;;;;;;;;5110635;28;20043;-74
2023/10/25 03:06:27;;;;;;;0.10;0.10;;;;;;;;;;5129923;28;20268;-74
2023/10/25 03:08:56;;;;;;;0.10;0.10;;;;;;;;;;5130171;28;20102;-75
2023/10/25 03:11:21;;;;;;;0.10;0.10;;;;;;;;;;5130015;28;20055;-75
2023/10/25 03:13:50;;;;;;;0.10;0.10;;;;;;;;;;5130005;28;20064;-74
2023/10/25 03:16:18;;;;;;;0.15;0.15;;;;;;;;;;5111436;28;20035;-75
2023/10/25 03:18:50;;;;;;;0.10;0.10;;;;;;;;;;5111523;28;20039;-72
2023/10/25 03:21:18;;;;;;;0.10;0.10;;;;;;;;;;5111320;27;20072;-75
2023/10/25 03:23:44;;;;;;;0.10;0.10;;;;;;;;;;5111926;28;20031;-75
2023/10/25 03:26:12;;;;;;;0.20;0.20;;;;;;;;;;5130097;28;20114;-72
2023/10/25 03:28:41;;;;;;;0.20;0.20;;;;;;;;;;5129666;28;20034;-74
2023/10/25 03:31:10;;;;;;;0.20;0.20;;;;;;;;;;5111551;28;20035;-74
2023/10/25 03:33:36;;;;;;;0.20;0.20;;;;;;;;;;5130235;28;20209;-76
2023/10/25 03:36:02;;;;;;;0.20;0.20;;;;;;;;;;5111369;28;20391;-76
2023/10/25 03:38:28;;;;;;;0.10;0.10;;;;;;;;;;5130886;28;20031;-76
2023/10/25 03:41:04;;;;;;;0.10;0.10;;;;;;;;;;5131486;28;20043;-76
2023/10/25 03:43:34;;;;;;;0.20;0.20;;;;;;;;;;5112229;28;20043;-76
2023/10/25 03:46:09;;;;;;;0.10;0.10;;;;;;;;;;5129559;28;20490;-76
2023/10/25 03:48:35;;;;;;;0.20;0.20;;;;;;;;;;5129624;28;20035;-72
2023/10/25 03:51:07;;;;;;;0.13;0.13;;;;;;;;;;5111644;28;20027;-78
2023/10/25 03:53:34;;;;;;;0.20;0.20;;;;;;;;;;5129771;28;20031;-78
2023/10/25 03:56:02;;;;;;;0.10;0.10;;;;;;;;;;5132652;27;20035;-78
2023/10/25 03:58:31;;;;;;;0.10;0.10;;;;;;;;;;5133259;28;20073;-77
2023/10/25 04:01:09;;;;;;;0.20;0.20;;;;;;;;;;5131838;28;20035;-75
2023/10/25 04:03:41;;;;;;;0.15;0.15;;;;;;;;;;5133116;28;20569;-75
2023/10/25 04:06:07;;;;;;;0.20;0.20;;;;;;;;;;5114490;28;20063;-74
2023/10/25 04:08:37;;;;;;;0.10;0.10;;;;;;;;;;5114504;28;20448;-72
2023/10/25 04:11:07;;;;;;;0.10;0.10;;;;;;;;;;5114784;28;20017;-72
2023/10/25 04:13:33;;;;;;;0.10;0.10;;;;;;;;;;5133201;28;20402;-72
2023/10/25 04:16:00;;;;;;;0.10;0.10;;;;;;;;;;5133288;28;20042;-75
2023/10/25 04:18:32;;;;;;;0.10;0.10;;;;;;;;;;5132649;28;20029;-75
2023/10/25 04:20:59;;;;;;;0.10;0.10;;;;;;;;;;5133444;28;20039;-74
2023/10/25 04:23:26;;;;;;;0.10;0.10;;;;;;;;;;5132637;27;20089;-75
2023/10/25 04:25:52;;;;;;;0.20;0.20;;;;;;;;;;5132869;28;20103;-74
2023/10/25 04:28:21;;;;;;;0.10;0.10;;;;;;;;;;5132670;28;20461;-75
2023/10/25 04:30:53;;;;;;;0.20;0.20;;;;;;;;;;5132857;28;20035;-75
2023/10/25 04:33:19;;;;;;;0.20;0.20;;;;;;;;;;5132331;28;20023;-75
2023/10/25 04:35:45;;;;;;;2.20;0.60;;;;;;;;;;5132391;28;20080;-75
2023/10/25 04:38:10;;;;;;;0.35;0.35;;;;;;;;;;5114510;28;20481;-74
2023/10/25 04:40:39;;;;;;;0.13;0.13;;;;;;;;;;5132467;28;20114;-74
2023/10/25 04:43:05;;;;;;;0.20;0.20;;;;;;;;;;5132643;28;20521;-73
2023/10/25 04:45:37;;;;;;;0.20;0.20;;;;;;;;;;5114094;28;20035;-74
2023/10/25 04:48:09;;;;;;;6.07;0.38;;;;;;;;;;5132678;28;20047;-75
2023/10/25 04:50:36;;;;;;;0.20;0.20;;;;;;;;;;5132384;28;20035;-76
2023/10/25 04:53:05;;;;;;;0.32;0.32;;;;;;;;;;5113782;28;20031;-75
2023/10/25 04:55:31;;;;;;;;;;;;;;;;;;5114570;28;20038;-75
2023/10/25 04:57:57;;;;;;;0.15;0.15;;;;;;;;;;5132426;28;19911;-73
2023/10/25 05:00:28;;;;;;;0.15;0.15;;;;;;;;;;5130671;28;20089;-74
2023/10/25 05:02:55;;;;;;;0.10;0.10;;;;;;;;;;5130301;28;20083;-76
2023/10/25 05:05:27;;;;;;;0.10;0.10;;;;;;;;;;5113824;28;20031;-74
2023/10/25 05:07:53;;;;;;;0.20;0.20;;;;;;;;;;5130865;27;20359;-75
2023/10/25 05:10:19;;;;;;;0.10;0.10;;;;;;;;;;5130437;27;20110;-76
2023/10/25 05:12:46;;;;;;;0.10;0.10;;;;;;;;;;5130755;28;20390;-74
2023/10/25 05:15:16;;;;;;;0.10;0.10;;;;;;;;;;5132634;28;20023;-77
2023/10/25 05:17:42;;;;;;;0.15;0.15;;;;;;;;;;5131810;28;20027;-76
2023/10/25 05:20:09;;;;;;;0.10;0.10;;;;;;;;;;5113387;28;20035;-76
2023/10/25 05:22:42;;;;;;;0.30;0.30;;;;;;;;;;5131171;27;20502;-77
2023/10/25 05:25:09;;;;;;;0.10;0.10;;;;;;;;;;5131849;28;20043;-76
2023/10/25 05:27:36;;;;;;;0.10;0.10;;;;;;;;;;5131462;28;20055;-72
2023/10/25 05:30:04;;;;;;;0.10;0.10;;;;;;;;;;5112971;28;20073;-74
2023/10/25 05:32:31;;;;;;;0.20;0.20;;;;;;;;;;5132349;28;20027;-74
2023/10/25 05:35:03;;;;;;;0.15;0.15;;;;;;;;;;5115485;28;20030;-74
2023/10/25 05:37:32;;;;;;;0.10;0.10;;;;;;;;;;5132267;28;20075;-74
2023/10/25 05:39:58;;;;;;;0.10;0.10;;;;;;;;;;5131555;28;20046;-73
2023/10/25 05:42:24;;;;;;;0.10;0.10;;;;;;;;;;5131182;28;20039;-74
2023/10/25 05:44:55;;;;;;;0.10;0.10;;;;;;;;;;5124704;28;20502;-70
2023/10/25 05:47:32;;;;;;;0.20;0.20;;;;;;;;;;5116693;28;20031;-74
2023/10/25 05:50:00;;;;;;;0.20;0.20;;;;;;;;;;5129827;28;20110;-78
2023/10/25 05:52:29;;;;;;;0.10;0.10;;;;;;;;;;5121736;28;20035;-74
2023/10/25 05:54:56;;;;;;;0.20;0.20;;;;;;;;;;5110371;28;20043;-76
2023/10/25 05:57:27;;;;;;;0.20;0.20;;;;;;;;;;5109949;28;20035;-74
2023/10/25 06:00:01;;;;;;;0.20;0.20;;;;;;;;;;5098082;28;20031;-71
2023/10/25 06:02:32;;;;;;;0.10;0.10;;;;;;;;;;5123110;28;20123;-76
2023/10/25 06:05:00;;;;;;;0.20;0.20;;;;;;;;;;5109835;28;20032;-72
2023/10/25 06:07:27;;;;;;;0.10;0.10;;;;;;;;;;5110351;28;20069;-71
2023/10/25 06:09:55;;;;;;;0.13;0.13;;;;;;;;;;5110334;28;20560;-72
2023/10/25 06:12:23;;;;;;;0.10;0.10;;;;;;;;;;5110068;28;20039;-75
2023/10/25 06:14:50;;;;;;;0.20;0.20;;;;;;;;;;5112642;28;20059;-75
2023/10/25 06:17:17;;;;;;;0.10;0.10;;;;;;;;;;5109550;28;20048;-72
2023/10/25 06:19:43;;;;;;;0.10;0.10;;;;;;;;;;5110244;28;20067;-77
2023/10/25 06:22:08;;;;;;;0.20;0.20;;;;;;;;;;5109636;28;21907;-76
2023/10/25 06:24:34;;;;;;;0.13;0.13;;;;;;;;;;5110053;28;20089;-75
2023/10/25 06:26:59;;;;;;;0.20;0.20;;;;;;;;;;5109779;28;20043;-77
2023/10/25 06:29:25;;;;;;;0.20;0.20;;;;;;;;;;5109529;28;20119;-76
2023/10/25 06:31:52;;;;;;;0.20;0.20;;;;;;;;;;5109541;28;20039;-76
2023/10/25 06:34:22;;;;;;;0.10;0.10;;;;;;;;;;5109815;28;20032;-76
2023/10/25 06:36:51;;;;;;;0.15;0.15;;;;;;;;;;5109214;28;20035;-77
2023/10/25 06:39:18;;;;;;;0.10;0.10;;;;;;;;;;5108784;28;20116;-77
2023/10/25 06:41:44;;;;;;;0.20;0.20;;;;;;;;;;5091416;28;20035;-79
2023/10/25 06:44:11;;;;;;;0.22;0.22;;;;;;;;;;5109725;28;20043;-72
2023/10/25 06:46:37;;;;;;;0.20;0.20;;;;;;;;;;5110283;28;20076;-77
2023/10/25 06:49:03;;;;;;;0.10;0.10;;;;;;;;;;5109753;28;20173;-77
2023/10/25 06:51:29;;;;;;;0.15;0.15;;;;;;;;;;5109443;28;20412;-77
2023/10/25 06:53:55;;;;;;;0.20;0.20;;;;;;;;;;5109902;28;20062;-77
2023/10/25 06:56:22;;;;;;;0.20;0.20;;;;;;;;;;5111464;28;20036;-78
2023/10/25 06:58:49;;;;;;;0.10;0.10;;;;;;;;;;5110376;28;20115;-77
2023/10/25 07:01:19;;;;;;;0.10;0.10;;;;;;;;;;5120624;28;20559;-75
2023/10/25 07:03:48;;;;;;;0.20;0.20;;;;;;;;;;5112466;28;20600;-76
2023/10/25 07:06:19;;;;;;;0.20;0.20;;;;;;;;;;5129534;27;20046;-75
2023/10/25 07:08:48;;;;;;;;;;;;;;;;;;5128438;28;20127;-75
2023/10/25 07:11:14;;;;;;;0.20;0.20;;;;;;;;;;5128199;27;20366;-74
2023/10/25 07:13:40;;;;;;;2.53;1.48;;;;;;;;;;5130235;28;20122;-74
2023/10/25 07:16:10;;;;;;;0.20;0.20;;;;;;;;;;5123906;28;20114;-74
2023/10/25 07:18:36;;;;;;;6.22;5.93;;;;;;;;;;5109477;28;20046;-75
2023/10/25 07:21:02;;;;;;;20.90;9.10;;;;;;;;;;5109195;28;20035;-74
2023/10/25 07:23:28;;;;;;;0.20;0.20;;;;;;;;;;5108794;28;20671;-74
2023/10/25 07:25:54;;;;;;;0.20;0.20;;;;;;;;;;5090598;28;20115;-77
2023/10/25 07:28:24;;;;;;;4.53;4.20;;;;;;;;;;5109505;28;20032;-77
2023/10/25 07:30:50;;;;;;;0.20;0.20;;;;;;;;;;5108265;28;20039;-77
2023/10/25 07:33:17;;;;;;;0.55;0.55;;;;;;;;;;5108785;28;20060;-76
2023/10/25 07:35:43;;;;;;;0.10;0.10;;;;;;;;;;5090464;28;20031;-77
2023/10/25 07:38:09;;;;;;;0.10;0.10;;;;;;;;;;5108758;28;20032;-80
2023/10/25 07:40:38;;;;;;;0.10;0.10;;;;;;;;;;5108439;28;20467;-78
2023/10/25 07:43:04;;;;;;;0.20;0.20;;;;;;;;;;5108804;28;20039;-77
2023/10/25 07:45:30;;;;;;;0.20;0.20;;;;;;;;;;5108224;28;20028;-77
2023/10/25 07:47:55;;;;;;;0.20;0.20;;;;;;;;;;5108616;28;20103;-77
2023/10/25 07:50:21;;;;;;;0.20;0.20;;;;;;;;;;5108606;28;20550;-75
2023/10/25 07:52:48;;;;;;;0.20;0.20;;;;;;;;;;5108628;28;20111;-78
2023/10/25 07:55:14;;;;;;;0.30;0.30;;;;;;;;;;5108746;28;20035;-75
2023/10/25 07:57:40;;;;;;;0.20;0.20;;;;;;;;;;5113980;28;20181;-78
2023/10/25 08:00:09;;;;;;;0.20;0.20;;;;;;;;;;5125102;28;20036;-78
2023/10/25 08:02:37;;;;;;;0.20;0.20;;;;;;;;;;5110390;28;20031;-78
2023/10/25 08:05:06;;;;;;;0.20;0.20;;;;;;;;;;5095840;28;20039;-77
2023/10/25 08:07:32;;;;;;;0.20;0.20;;;;;;;;;;5114165;28;20525;-72
2023/10/25 08:10:02;;;;;;;0.10;0.10;;;;;;;;;;5090133;28;20035;-71
2023/10/25 08:12:35;;;;;;;0.20;0.20;;;;;;;;;;5110138;28;20040;-71
2023/10/25 08:15:01;;;;;;;0.20;0.20;;;;;;;;;;5128541;28;20027;-71
2023/10/25 08:17:26;;;;;;;0.20;0.20;;;;;;;;;;5127805;28;20042;-70
2023/10/25 08:19:51;;;;;;;0.15;0.15;;;;;;;;;;5117558;28;20019;-69
2023/10/25 08:22:17;;;;;;;0.20;0.20;;;;;;;;;;5123724;28;20031;-72
2023/10/25 08:24:43;;;;;;;0.68;0.68;;;;;;;;;;5128351;28;20035;-71
2023/10/25 08:27:08;;;;;;;0.25;0.25;;;;;;;;;;5128369;27;20043;-71
2023/10/25 08:29:34;;;;;;;0.32;0.32;;;;;;;;;;5121610;28;20119;-72
2023/10/25 08:31:59;;;;;;;3.05;0.80;;;;;;;;;;5107692;28;20032;-72
2023/10/25 08:34:25;;;;;;;1.00;0.50;;;;;;;;;;5107904;28;20050;-70
2023/10/25 08:36:52;;;;;;;0.10;0.10;;;;;;;;;;5089810;28;20034;-71
2023/10/25 08:39:21;;;;;;;0.20;0.20;;;;;;;;;;5089589;28;20070;-70
2023/10/25 08:41:47;;;;;;;0.20;0.20;;;;;;;;;;5108649;28;20058;-72
2023/10/25 08:44:13;;;;;;;0.40;0.20;;;;;;;;;;5092895;28;20031;-69
2023/10/25 08:46:40;;;;;;;0.63;0.63;;;;;;;;;;5092613;28;20060;-72
2023/10/25 08:49:05;;;;;;;1.30;0.75;;;;;;;;;;5125008;28;20071;-70
2023/10/25 08:51:31;;;;;;;4.78;0.40;;;;;;;;;;5113816;28;20633;-71
2023/10/25 08:53:59;;;;;;;0.32;0.25;;;;;;;;;;5130557;28;20027;-70
2023/10/25 08:56:28;;;;;;;0.10;0.10;;;;;;;;;;5111367;28;20074;-71
2023/10/25 08:58:57;;;;;;;2.53;0.30;;;;;;;;;;5131440;28;20325;-70
2023/10/25 09:01:22;;;;;;;0.38;0.30;;;;;;;;;;5128570;28;20027;-72
2023/10/25 09:03:48;;;;;;;0.10;0.10;;;;;;;;;;5131909;28;20075;-71
2023/10/25 09:06:22;;;;;;;2.80;0.47;;;;;;;;;;5130198;28;20112;-70
2023/10/25 09:08:55;;;;;;;1.85;0.32;;;;;;;;;;5129456;28;20045;-72
2023/10/25 09:11:21;;;;;;;0.20;0.20;;;;;;;;;;5129699;28;20063;-72
2023/10/25 09:13:54;;;;;;;0.63;0.30;;;;;;;;;;5114692;28;20487;-71
2023/10/25 09:16:19;;;;;;;1.98;0.63;;;;;;;;;;5109104;28;20424;-72
2023/10/25 09:18:45;;;;;;;0.20;0.20;;;;;;;;;;5108244;28;20027;-71
2023/10/25 09:21:11;;;;;;;2.72;0.30;;;;;;;;;;5109059;28;20039;-71
2023/10/25 09:23:37;;;;;;;0.20;0.20;;;;;;;;;;5110982;28;20080;-71
2023/10/25 09:26:13;;;;;;;0.25;0.25;;;;;;;;;;5110244;28;20483;-72
2023/10/25 09:28:38;;;;;;;4.93;0.93;;;;;;;;;;5110573;28;20347;-71
2023/10/25 09:31:18;;;;;;;0.80;0.57;;;;;;;;;;5110296;28;20035;-72
2023/10/25 09:33:46;;;;;;;0.20;0.20;;;;;;;;;;5110678;28;20024;-72
2023/10/25 09:36:12;;;;;;;0.13;0.13;;;;;;;;;;5110664;28;20383;-72
2023/10/25 09:38:38;;;;;;;0.20;0.20;;;;;;;;;;5109713;28;20035;-71
2023/10/25 09:41:03;;;;;;;0.22;0.22;;;;;;;;;;5110204;28;20050;-72
2023/10/25 09:43:30;;;;;;;1.40;0.30;;;;;;;;;;5110198;28;20031;-70
2023/10/25 09:45:57;;;;;;;1.00;0.22;;;;;;;;;;5110387;28;20192;-72
2023/10/25 09:48:22;;;;;;;0.22;0.22;;;;;;;;;;5110054;28;20425;-71
2023/10/25 09:50:53;;;;;;;0.20;0.20;;;;;;;;;;5109976;28;20032;-70
2023/10/25 09:53:25;;;;;;;0.20;0.20;;;;;;;;;;5109148;28;20020;-71
2023/10/25 09:55:56;;;;;;;0.75;0.75;;;;;;;;;;5110055;28;20121;-71
2023/10/25 09:58:22;;;;;;;0.50;0.40;;;;;;;;;;5110378;28;20474;-71
2023/10/25 10:00:48;;;;;;;3.40;2.70;;;;;;;;;;5110022;28;20039;-71
2023/10/25 10:03:20;;;;;;;0.63;0.20;;;;;;;;;;5109822;28;20036;-71
2023/10/25 10:05:51;;;;;;;0.25;0.25;;;;;;;;;;5090962;28;20043;-71
2023/10/25 10:08:25;;;;;;;0.20;0.20;;;;;;;;;;5114840;28;20028;-72
2023/10/25 10:10:52;;;;;;;0.25;0.25;;;;;;;;;;5115560;28;20076;-72
2023/10/25 10:13:19;;;;;;;1.25;0.40;;;;;;;;;;5116724;28;20038;-70
2023/10/25 10:15:54;;;;;;;0.57;0.43;;;;;;;;;;5109796;28;20053;-72
2023/10/25 10:18:20;;;;;;;0.20;0.20;;;;;;;;;;5110952;28;20372;-70
2023/10/25 10:20:57;;;;;;;0.20;0.20;;;;;;;;;;5109889;28;20114;-71
2023/10/25 10:23:32;;;;;;;0.20;0.20;;;;;;;;;;5109404;28;20120;-70
2023/10/25 10:25:58;;;;;;;5.30;0.70;;;;;;;;;;5114024;28;20019;-70
2023/10/25 10:28:46;;;;;;;1.35;0.57;;;;;;;;;;5124134;28;20351;-71
2023/10/25 10:31:18;;;;;;;1.45;1.05;;;;;;;;;;5129740;28;20456;-70
2023/10/25 10:33:47;;;;;;;1.55;0.30;;;;;;;;;;5111625;28;20373;-71
2023/10/25 10:36:23;;;;;;;0.30;0.30;;;;;;;;;;5128782;28;20039;-71
2023/10/25 10:39:08;;;;;;;2.17;0.70;;;;;;;;;;5101329;28;20451;-70
2023/10/25 10:41:33;;;;;;;1.42;0.50;;;;;;;;;;5120384;28;20092;-71
2023/10/25 10:43:59;;;;;;;2.72;0.80;;;;;;;;;;5085695;28;20043;-69
2023/10/25 10:46:26;;;;;;;1.48;0.47;;;;;;;;;;5117564;28;20110;-70
2023/10/25 10:48:54;;;;;;;1.85;1.45;;;;;;;;;;5128923;28;20038;-69
2023/10/25 10:51:20;;;;;;;9.55;0.57;;;;;;;;;;5129294;28;20039;-70
2023/10/25 10:53:46;;;;;;;1.15;0.40;;;;;;;;;;5129456;28;20047;-70
2023/10/25 10:56:12;;;;;;;0.20;0.20;;;;;;;;;;5130391;28;20050;-70
2023/10/25 10:58:37;;;;;;;2.90;0.65;;;;;;;;;;5129521;28;20067;-70
2023/10/25 11:01:03;;;;;;;0.55;0.20;;;;;;;;;;5097985;28;20933;-70
2023/10/25 11:03:28;;;;;;;1.65;1.38;;;;;;;;;;5107250;28;20432;-70
2023/10/25 11:05:57;;;;;;;5.80;1.63;;;;;;;;;;5088579;28;20088;-71
2023/10/25 11:08:23;;;;;;;0.20;0.20;;;;;;;;;;5106883;28;20134;-71
2023/10/25 11:10:49;;;;;;;6.32;1.25;;;;;;;;;;5106838;28;20050;-71
2023/10/25 11:13:15;;;;;;;0.75;0.40;;;;;;;;;;5106917;28;20487;-71
2023/10/25 11:15:40;;;;;;;5.57;0.57;;;;;;;;;;5108011;28;20028;-71
2023/10/25 11:18:09;;;;;;;0.20;0.20;;;;;;;;;;5108530;28;20435;-71
2023/10/25 11:20:35;;;;;;;0.37;0.37;;;;;;;;;;5108250;28;20035;-71
2023/10/25 11:23:02;;;;;;;2.10;0.82;;;;;;;;;;5106996;28;20288;-70
2023/10/25 11:25:29;;;;;;;0.20;0.20;;;;;;;;;;5106592;28;20047;-72
2023/10/25 11:27:56;;;;;;;0.20;0.20;;;;;;;;;;5118497;28;20023;-70
2023/10/25 11:30:21;;;;;;;2.60;0.40;;;;;;;;;;5102816;28;20119;-72
2023/10/25 11:32:48;;;;;;;0.20;0.20;;;;;;;;;;5113162;28;20038;-73
2023/10/25 11:35:40;;;;;;;0.25;0.25;;;;;;;;;;5098405;28;20062;-72
2023/10/25 11:38:09;;;;;;;1.90;0.60;;;;;;;;;;5088330;28;20063;-70
2023/10/25 11:40:41;;;;;;;2.08;0.57;;;;;;;;;;5070014;28;20047;-69
2023/10/25 11:43:15;;;;;;;0.30;0.30;;;;;;;;;;5104052;28;20035;-71
2023/10/25 11:45:44;;;;;;;0.45;0.45;;;;;;;;;;5090095;28;20035;-71
2023/10/25 11:48:10;;;;;;;3.10;0.63;;;;;;;;;;5108298;28;20073;-72
2023/10/25 11:50:36;;;;;;;2.75;0.50;;;;;;;;;;5101002;28;20043;-71
2023/10/25 11:53:02;;;;;;;0.22;0.22;;;;;;;;;;5070523;28;20103;-73
2023/10/25 11:55:28;;;;;;;0.20;0.20;;;;;;;;;;5087882;28;20119;-72
2023/10/25 11:57:53;;;;;;;2.15;0.47;;;;;;;;;;5101607;28;20483;-72
2023/10/25 12:00:25;;;;;;;0.73;0.38;;;;;;;;;;5096433;28;20036;-71
2023/10/25 12:02:51;;;;;;;0.20;0.20;;;;;;;;;;5097699;28;20111;-70
2023/10/25 12:05:20;;;;;;;0.20;0.20;;;;;;;;;;5092948;28;20573;-71
2023/10/25 12:07:48;;;;;;;0.20;0.20;;;;;;;;;;5070010;28;20398;-69
2023/10/25 12:10:17;;;;;;;0.45;0.40;;;;;;;;;;5087986;28;20032;-71
2023/10/25 12:12:43;;;;;;;0.30;0.30;;;;;;;;;;5087528;28;20409;-72
2023/10/25 12:15:09;;;;;;;0.20;0.20;;;;;;;;;;5082007;28;20088;-70
2023/10/25 12:17:34;;;;;;;0.20;0.20;;;;;;;;;;5101225;28;20048;-71
2023/10/25 12:20:00;;;;;;;3.58;0.45;;;;;;;;;;5102351;28;20028;-71
2023/10/25 12:22:26;;;;;;;0.20;0.20;;;;;;;;;;5101948;28;20062;-71
2023/10/25 12:24:51;;;;;;;0.20;0.20;;;;;;;;;;5091655;28;20463;-70
2023/10/25 12:27:17;;;;;;;1.77;1.10;;;;;;;;;;5105202;28;20020;-71
2023/10/25 12:29:45;;;;;;;1.08;0.60;;;;;;;;;;5107993;28;20024;-71
2023/10/25 12:32:11;;;;;;;0.70;0.40;;;;;;;;;;5101193;28;20416;-70
2023/10/25 12:34:36;;;;;;;0.20;0.20;;;;;;;;;;5106664;28;20030;-72
2023/10/25 12:37:02;;;;;;;1.95;0.75;;;;;;;;;;5105990;28;20035;-71
2023/10/25 12:39:28;;;;;;;0.80;0.45;;;;;;;;;;5104176;28;20024;-71
2023/10/25 12:41:53;;;;;;;0.40;0.40;;;;;;;;;;5101107;28;20032;-71
2023/10/25 12:44:19;;;;;;;0.20;0.20;;;;;;;;;;5089969;28;20036;-70
2023/10/25 12:46:45;;;;;;;0.30;0.30;;;;;;;;;;5095464;28;20044;-72
2023/10/25 12:49:13;;;;;;;0.30;0.30;;;;;;;;;;5111001;28;20032;-70
2023/10/25 12:51:39;;;;;;;0.20;0.20;;;;;;;;;;5111110;28;20058;-71
2023/10/25 12:54:06;;;;;;;0.20;0.20;;;;;;;;;;5111053;28;20466;-71
2023/10/25 12:56:32;;;;;;;0.30;0.30;;;;;;;;;;5110265;28;20135;-71
2023/10/25 12:58:57;;;;;;;0.20;0.20;;;;;;;;;;5111048;28;20584;-71
2023/10/25 13:01:23;;;;;;;0.43;0.43;;;;;;;;;;5110396;28;20043;-71
2023/10/25 13:03:52;;;;;;;0.20;0.20;;;;;;;;;;5111516;28;20853;-72
2023/10/25 13:06:19;;;;;;;0.20;0.20;;;;;;;;;;5110085;28;20015;-71
2023/10/25 13:08:44;;;;;;;0.22;0.22;;;;;;;;;;5089558;28;20081;-71
2023/10/25 13:11:10;;;;;;;2.97;0.77;;;;;;;;;;5088846;28;20463;-72
2023/10/25 13:13:36;;;;;;;0.30;0.30;;;;;;;;;;5088614;28;20048;-72
2023/10/25 13:16:01;;;;;;;0.50;0.30;;;;;;;;;;5088402;28;20043;-72
2023/10/25 13:18:27;;;;;;;0.20;0.20;;;;;;;;;;5088312;28;20042;-70
2023/10/25 13:20:52;;;;;;;0.30;0.30;;;;;;;;;;5089202;28;20501;-72
2023/10/25 13:23:18;;;;;;;0.20;0.20;;;;;;;;;;5090124;28;20043;-72
2023/10/25 13:25:44;;;;;;;0.20;0.20;;;;;;;;;;5089973;28;20071;-71
2023/10/25 13:28:09;;;;;;;0.77;0.77;;;;;;;;;;5089569;28;20024;-72
2023/10/25 13:30:35;;;;;;;0.40;0.40;;;;;;;;;;5090066;28;20052;-73
2023/10/25 13:33:01;;;;;;;0.30;0.30;;;;;;;;;;5090243;28;20812;-71
2023/10/25 13:35:26;;;;;;;0.52;0.38;;;;;;;;;;5072112;28;20051;-70
2023/10/25 13:37:52;;;;;;;0.40;0.40;;;;;;;;;;5089870;28;20020;-70
2023/10/25 13:40:17;;;;;;;0.20;0.20;;;;;;;;;;5079411;28;20063;-71
2023/10/25 13:42:43;;;;;;;0.22;0.22;;;;;;;;;;5080530;28;20032;-72
2023/10/25 13:45:09;;;;;;;0.30;0.30;;;;;;;;;;5089766;28;20031;-71
2023/10/25 13:47:34;;;;;;;0.65;0.25;;;;;;;;;;5089780;28;20498;-69
2023/10/25 13:50:00;;;;;;;0.65;0.38;;;;;;;;;;5092480;28;20122;-71
2023/10/25 13:52:25;;;;;;;0.30;0.30;;;;;;;;;;5095746;28;20020;-70
2023/10/25 13:54:51;;;;;;;0.20;0.20;;;;;;;;;;5097605;28;20028;-72
2023/10/25 13:57:20;;;;;;;1.77;0.80;;;;;;;;;;5101306;28;20031;-73
2023/10/25 13:59:46;;;;;;;0.20;0.20;;;;;;;;;;5099239;28;20035;-72
2023/10/25 14:02:12;;;;;;;0.20;0.20;;;;;;;;;;5097316;28;20733;-73
2023/10/25 14:04:40;;;;;;;0.20;0.20;;;;;;;;;;5103083;28;20036;-72
2023/10/25 14:07:06;;;;;;;0.90;0.30;;;;;;;;;;5078646;28;20048;-73
2023/10/25 14:09:31;;;;;;;4.85;0.70;;;;;;;;;;5098447;28;20488;-72
2023/10/25 14:12:00;;;;;;;2.10;0.60;;;;;;;;;;5089605;28;20016;-73
2023/10/25 14:14:25;;;;;;;0.20;0.20;;;;;;;;;;5098748;28;20066;-70
2023/10/25 14:16:51;;;;;;;2.10;0.32;;;;;;;;;;5066081;28;20479;-73
2023/10/25 14:19:20;;;;;;;0.25;0.25;;;;;;;;;;5082397;28;20475;-73
2023/10/25 14:21:48;;;;;;;0.20;0.20;;;;;;;;;;5097819;28;20081;-73
2023/10/25 14:24:14;;;;;;;7.47;1.20;;;;;;;;;;5070129;28;20509;-71
2023/10/25 14:26:41;;;;;;;0.35;0.20;;;;;;;;;;5089476;28;20044;-73
2023/10/25 14:29:07;;;;;;;0.20;0.20;;;;;;;;;;5070750;28;20189;-73
2023/10/25 14:31:41;;;;;;;0.28;0.28;;;;;;;;;;5087939;28;20040;-72
2023/10/25 14:34:09;;;;;;;0.30;0.30;;;;;;;;;;5071223;28;20107;-73
2023/10/25 14:36:35;;;;;;;0.20;0.20;;;;;;;;;;5088689;28;20570;-70
2023/10/25 14:39:03;;;;;;;0.30;0.30;;;;;;;;;;5093603;28;20028;-72
2023/10/25 14:41:31;;;;;;;0.40;0.40;;;;;;;;;;5088726;28;20040;-71
2023/10/25 14:43:56;;;;;;;0.30;0.30;;;;;;;;;;5087817;28;20379;-72
2023/10/25 14:46:24;;;;;;;0.38;0.32;;;;;;;;;;5088672;28;20040;-71